AirNav   TITAN Aviation Fuels
 
 1466 users online  

49IL Walnut Creek Airport
Somonauk, Illinois, USA

GOING TO SOMONAUK?


FAA INFORMATION EFFECTIVE 01 DECEMBER 2022

Location

FAA Identifier: 49IL
Lat/Long: 41-35-36.0000N 088-41-30.0000W
41-35.600000N 088-41.500000W
41.5933333,-88.6916667
(estimated)
Elevation: 666 ft. / 203 m (estimated)
Variation: 01W (1995)
From city: 3 miles S of SOMONAUK, IL
Time zone: UTC -6 (UTC -5 during Daylight Saving Time)
Zip code: 60531

Airport Operations

Airport use: Private use. Permission required prior to landing
Activation date: 07/2000
Control tower: no
ARTCC: CHICAGO CENTER
FSS: KANKAKEE FLIGHT SERVICE STATION
Attendance: IREG
Wind indicator: yes
Segmented circle: no

Airport Communications

WX ASOS at ARR (14 nm NE): PHONE 630-466-5622
WX AWOS-3 at C09 (16 nm SE): 118.175 (815-941-1815)

Nearby radio navigation aids

VOR radial/distance  VOR name  Freq  Var
JOTr278/17.0JOLIET VOR/DME112.3002E
DPAr219/23.5DUPAGE VOR/DME108.4002E

Airport Services

Runway Information

Runway 9/27

Dimensions: 2200 x 100 ft. / 671 x 30 m
Surface: turf
Runway edge lights: low intensity
RY LGTS AVBL BY PRIOR ARRANGEMENT.
RUNWAY 9  RUNWAY 27
Traffic pattern: leftleft
Displaced threshold: 150 ft.no
Obstructions: 15 ft. road, 150 ft. from runway40 ft. trees, 1100 ft. from runway
TREES ARE TRIMMED TO STANDARD FOR RESIDENTIAL ARPT.

Airport Ownership and Management from official FAA records

Ownership: Privately-owned
Owner: BRENT BISH
435 CLARK ST
HINCKLEY, IL 60520
Phone (815) 712-5795
Manager: BRENT BISH
435 CLARK ST
HINCKLEY, IL 60520
Phone (815) 712-5795

Airport Operational Statistics

Aircraft based on the field: 2
Single engine airplanes: 2
    

Additional Remarks

FOR CD CTC CHICAGO ARTCC AT 630-906-8921.

Instrument Procedures

There are no published instrument procedures at 49IL.

Some nearby airports with instrument procedures:

KARR - Aurora Municipal Airport (14 nm NE)
C09 - Morris Municipal Airport-James R. Washburn Field (16 nm SE)
KDKB - De Kalb Taylor Municipal Airport (20 nm N)
KRPJ - Rochelle Municipal Airport/Koritz Field (25 nm NW)
KVYS - Illinois Valley Regional Airport-Walter A Duncan Field (25 nm SW)
 
Loc | Ops | Rwys | IFR | FBO | Links
Com | Nav | Svcs | Stats | Notes
Area around 49IL (Walnut Creek Airport)
 
Road maps at: MapQuest Bing Google
 
Aerial photo
WARNING: Photo may not be current or correct
Aerial photo of 49IL (Walnut Creek Airport)
Do you have a better or more recent aerial photo of Walnut Creek Airport that you would like to share? If so, please send us your photo.

 
Sectional chart

 
Airport distance calculator
Flying to Walnut Creek Airport? Find the distance to fly.

From to 49IL

Sunrise and sunset
Times for 07-Dec-2022
 Local
(UTC-6)
 Zulu
(UTC)
Morning civil twilight06:3812:38
Sunrise07:0913:09
Sunset16:2422:24
Evening civil twilight16:5522:55

Current date and time
Zulu (UTC)  07-Dec-2022 14:49:26
Local (UTC-6)  07-Dec-2022 08:49:26
 
METAR
KARR 
14nm NE 
071412Z 17004KT M1/4SM FG VV002 02/02 A3021 RMK AO2 T00170017
KC09 
16nm SE 
071435Z AUTO 00000KT 1 3/4SM BR SCT003 OVC011 03/03 A3023 RMK AO2 T00340034
KDKB 
20nm N 
071435Z AUTO 19003KT 1 3/4SM BR OVC013 02/02 A3023 RMK AO2 T00150015
KJOT 
24nm E 
071435Z AUTO 00000KT 2SM BR SCT007 OVC014 05/04 A3024 RMK AO2 T00470036
KRPJ 
24nm NW 
071435Z AUTO 17004KT 4SM BR OVC010 03/02 A3023 RMK AO2 T00300023 TSNO
KVYS 
25nm SW 
071435Z AUTO 00000KT 4SM BR OVC010 05/02 A3024 RMK AO2 T00450021
KLOT 
27nm E 
071435Z AUTO 00000KT 1 3/4SM BR OVC004 04/04 A3024 RMK AO2
KDPA 
28nm NE 
071435Z 18003KT 2SM R02L/6000FT BR OVC005 03/02 A3022 RMK AO2 T00330022
TAF
KDPA 
28nm NE 
071403Z 0714/0812 VRB03KT 1/2SM FG OVC003 TEMPO 0714/0715 1/4SM FG VV002 FM071500 33004KT 3SM BR OVC004 FM071800 32008KT P6SM BKN010 FM072100 35006KT P6SM BKN025 FM080200 01005KT P6SM SCT010 BKN020
NOTAMs
Click for the latest NOTAMs
NOTAMs are issued by the DoD/FAA and will open in a separate window not controlled by AirNav.

 

 
 

Would you like to see your business listed on this page?

 If your business provides an interesting product or service to pilots, flight crews, aircraft, or users of the Walnut Creek Airport, you should consider listing it here.  To start the listing process, click on the button below
 
Add a business
 

Other Pages about Walnut Creek Airport

Update a link
 
Copyright © AirNav, LLC. All rights reserved. Privacy Policy  Contact